createdAt,value
2017-10-23T00:00:14.938Z,101105.83
2017-10-23T00:02:42.570Z,101112.27
2017-10-23T00:05:10.158Z,101105.50
2017-10-23T00:07:37.800Z,101106.42
2017-10-23T00:10:05.394Z,101112.20
2017-10-23T00:12:33.063Z,101105.40
2017-10-23T00:15:00.663Z,101104.19
2017-10-23T00:17:28.393Z,101113.85
2017-10-23T00:19:55.982Z,101112.64
2017-10-23T00:22:23.635Z,101113.44
2017-10-23T00:24:51.272Z,101116.66
2017-10-23T00:27:18.863Z,101118.28
2017-10-23T00:29:46.527Z,101113.47
2017-10-23T00:32:14.115Z,101122.44
2017-10-23T00:34:41.752Z,101113.59
2017-10-23T00:37:09.347Z,101120.52
2017-10-23T00:39:37.783Z,101113.28
2017-10-23T00:42:06.463Z,101115.42
2017-10-23T00:44:34.090Z,101119.98
2017-10-23T00:47:01.683Z,101126.02
2017-10-23T00:49:29.313Z,101124.19
2017-10-23T00:51:57.018Z,101122.20
2017-10-23T00:54:24.654Z,101134.39
2017-10-23T00:56:52.773Z,101138.03
2017-10-23T00:59:20.393Z,101136.95
2017-10-23T01:01:47.995Z,101135.99
2017-10-23T01:04:15.591Z,101132.84
2017-10-23T01:06:43.220Z,101131.89
2017-10-23T01:09:11.667Z,101128.89
2017-10-23T01:11:39.271Z,101130.64
2017-10-23T01:14:06.868Z,101127.36
2017-10-23T01:16:34.502Z,101124.80
2017-10-23T01:19:02.097Z,101131.79
2017-10-23T01:21:29.731Z,101128.28
2017-10-23T01:23:57.334Z,101122.86
2017-10-23T01:26:24.967Z,101121.80
2017-10-23T01:28:52.547Z,101124.20
2017-10-23T01:31:20.174Z,101119.64
2017-10-23T01:33:47.768Z,101112.14
2017-10-23T01:36:15.383Z,101116.96
2017-10-23T01:38:43.054Z,101112.78
2017-10-23T01:41:10.653Z,101113.33
2017-10-23T01:43:38.281Z,101112.30
2017-10-23T01:46:07.093Z,101122.38
2017-10-23T01:48:34.711Z,101126.02
2017-10-23T01:51:02.306Z,101125.47
2017-10-23T01:53:29.927Z,101127.04
2017-10-23T01:55:57.515Z,101130.23
2017-10-23T01:58:25.156Z,101130.96
2017-10-23T02:00:52.731Z,101128.82
2017-10-23T02:03:20.380Z,101126.14
2017-10-23T02:05:47.978Z,101119.89
2017-10-23T02:08:15.611Z,101119.64
2017-10-23T02:10:44.074Z,101128.83
2017-10-23T02:13:11.759Z,101133.17
2017-10-23T02:15:39.361Z,101132.72
2017-10-23T02:18:06.995Z,101135.52
2017-10-23T02:20:34.592Z,101139.54
2017-10-23T02:23:02.966Z,101143.76
2017-10-23T02:25:30.595Z,101146.83
2017-10-23T02:27:58.170Z,101152.05
2017-10-23T02:30:25.825Z,101150.27
2017-10-23T02:32:53.409Z,101156.78
2017-10-23T02:35:21.045Z,101154.48
2017-10-23T02:37:48.642Z,101162.36
2017-10-23T02:40:16.261Z,101160.20
2017-10-23T02:42:43.864Z,101163.41
2017-10-23T02:45:11.482Z,101161.53
2017-10-23T02:47:39.888Z,101158.19
2017-10-23T02:50:07.531Z,101163.55
2017-10-23T02:52:35.120Z,101155.13
2017-10-23T02:55:02.743Z,101159.37
2017-10-23T02:57:30.871Z,101160.45
2017-10-23T02:59:58.490Z,101158.22
2017-10-23T03:02:26.096Z,101156.97
2017-10-23T03:04:53.736Z,101162.08
2017-10-23T03:07:21.399Z,101165.80
2017-10-23T03:09:49.015Z,101169.83
2017-10-23T03:12:16.607Z,101171.36
2017-10-23T03:14:44.273Z,101177.67
2017-10-23T03:17:11.835Z,101166.89
2017-10-23T03:19:39.467Z,101173.47
2017-10-23T03:22:07.050Z,101176.41
2017-10-23T03:24:34.677Z,101180.04
2017-10-23T03:27:02.271Z,101181.38
2017-10-23T03:29:29.891Z,101185.24
2017-10-23T03:31:57.464Z,101187.13
2017-10-23T03:34:26.286Z,101192.64
2017-10-23T03:36:53.867Z,101191.84
2017-10-23T03:39:21.494Z,101189.93
2017-10-23T03:41:49.112Z,101194.94
2017-10-23T03:44:16.732Z,101197.59
2017-10-23T03:46:44.317Z,101193.70
2017-10-23T03:49:11.931Z,101193.79
2017-10-23T03:51:39.625Z,101194.05
2017-10-23T03:54:07.305Z,101192.58
2017-10-23T03:56:34.905Z,101193.25
2017-10-23T03:59:02.618Z,101197.43
2017-10-23T04:01:30.204Z,101194.05
2017-10-23T04:03:57.807Z,101197.39
2017-10-23T04:06:25.399Z,101202.12
2017-10-23T04:08:53.078Z,101204.95
2017-10-23T04:11:20.675Z,101208.02
2017-10-23T04:13:48.949Z,101207.86
2017-10-23T04:16:16.575Z,101210.83
2017-10-23T04:18:44.196Z,101213.09
2017-10-23T04:21:11.789Z,101218.77
2017-10-23T04:23:39.425Z,101217.69
2017-10-23T04:26:07.666Z,101216.13
2017-10-23T04:28:35.279Z,101208.59
2017-10-23T04:31:02.871Z,101218.52
2017-10-23T04:33:30.488Z,101217.94
2017-10-23T04:35:58.083Z,101223.05
2017-10-23T04:38:25.707Z,101219.44
2017-10-23T04:40:53.300Z,101212.39
2017-10-23T04:43:20.906Z,101218.55
2017-10-23T04:45:48.520Z,101215.33
2017-10-23T04:48:16.140Z,101213.31
2017-10-23T04:50:43.770Z,101220.02
2017-10-23T04:53:11.375Z,101219.03
2017-10-23T04:55:39.006Z,101229.53
2017-10-23T04:58:06.587Z,101230.36
2017-10-23T05:00:34.206Z,101227.67
2017-10-23T05:03:01.785Z,101223.78
2017-10-23T05:05:29.406Z,101227.77
2017-10-23T05:07:57.023Z,101233.26
2017-10-23T05:10:24.629Z,101227.77
2017-10-23T05:12:52.250Z,101241.59
2017-10-23T05:15:19.855Z,101231.09
2017-10-23T05:17:47.484Z,101233.10
2017-10-23T05:20:15.065Z,101225.31
2017-10-23T05:22:42.723Z,101232.63
2017-10-23T05:25:10.328Z,101224.58
2017-10-23T05:27:37.987Z,101234.70
2017-10-23T05:30:05.550Z,101227.87
2017-10-23T05:32:33.176Z,101230.97
2017-10-23T05:35:00.748Z,101226.78
2017-10-23T05:37:28.389Z,101224.36
2017-10-23T05:39:56.014Z,101227.36
2017-10-23T05:42:23.725Z,101229.08
2017-10-23T05:44:51.446Z,101223.87
2017-10-23T05:47:19.039Z,101229.11
2017-10-23T05:49:46.696Z,101230.93
2017-10-23T05:52:14.902Z,101236.07
2017-10-23T05:54:42.482Z,101231.22
2017-10-23T05:57:10.117Z,101237.37
2017-10-23T05:59:37.706Z,101244.08
2017-10-23T06:02:05.310Z,101250.33
2017-10-23T06:04:32.918Z,101251.38
2017-10-23T06:07:00.596Z,101256.69
2017-10-23T06:09:28.361Z,101257.54
2017-10-23T06:11:55.962Z,101268.27
2017-10-23T06:14:23.533Z,101264.08
2017-10-23T06:16:51.247Z,101275.85
2017-10-23T06:19:18.826Z,101284.40
2017-10-23T06:21:46.458Z,101282.90
2017-10-23T06:24:14.088Z,101279.84
2017-10-23T06:26:41.683Z,101291.89
2017-10-23T06:29:09.304Z,101287.59
2017-10-23T06:31:36.946Z,101287.23
2017-10-23T06:34:04.561Z,101294.16
2017-10-23T06:36:32.198Z,101289.50
2017-10-23T06:38:59.888Z,101289.47
2017-10-23T06:41:27.500Z,101299.30
2017-10-23T06:43:55.139Z,101296.37
2017-10-23T06:46:22.758Z,101293.69
2017-10-23T06:48:50.362Z,101289.80
2017-10-23T06:51:17.990Z,101293.27
2017-10-23T06:53:45.566Z,101292.09
2017-10-23T06:56:13.180Z,101289.25
2017-10-23T06:58:40.854Z,101284.56
2017-10-23T07:01:08.477Z,101285.65
2017-10-23T07:03:36.061Z,101285.91
2017-10-23T07:06:03.742Z,101295.03
2017-10-23T07:08:31.315Z,101297.84
2017-10-23T07:10:59.591Z,101298.67
2017-10-23T07:13:28.058Z,101298.83
2017-10-23T07:15:55.668Z,101299.16
2017-10-23T07:18:23.302Z,101296.60
2017-10-23T07:20:50.911Z,101297.85
2017-10-23T07:23:18.562Z,101300.41
2017-10-23T07:25:46.177Z,101295.55
2017-10-23T07:28:13.843Z,101301.58
2017-10-23T07:30:42.682Z,101296.45
2017-10-23T07:33:10.288Z,101296.62
2017-10-23T07:35:37.887Z,101300.92
2017-10-23T07:38:05.510Z,101305.78
2017-10-23T07:40:33.120Z,101302.05
2017-10-23T07:43:00.775Z,101307.03
2017-10-23T07:45:28.515Z,101307.34
2017-10-23T07:47:56.175Z,101310.58
2017-10-23T07:50:23.771Z,101312.36
2017-10-23T07:52:51.519Z,101311.89
2017-10-23T07:55:19.115Z,101314.47
2017-10-23T07:57:46.740Z,101312.34
2017-10-23T08:00:14.331Z,101315.27
2017-10-23T08:02:41.968Z,101312.34
2017-10-23T08:05:09.570Z,101315.17
2017-10-23T08:07:37.194Z,101320.51
2017-10-23T08:10:04.788Z,101320.00
2017-10-23T08:12:32.419Z,101326.06
2017-10-23T08:15:00.023Z,101325.33
2017-10-23T08:17:27.642Z,101332.33
2017-10-23T08:19:55.254Z,101334.27
2017-10-23T08:22:22.911Z,101334.20
2017-10-23T08:24:50.498Z,101337.75
2017-10-23T08:27:18.125Z,101338.99
2017-10-23T08:29:45.764Z,101337.52
2017-10-23T08:32:13.392Z,101342.92
2017-10-23T08:34:40.982Z,101334.71
2017-10-23T08:37:08.663Z,101342.28
2017-10-23T08:39:36.264Z,101339.59
2017-10-23T08:42:03.879Z,101337.36
2017-10-23T08:44:31.504Z,101340.30
2017-10-23T08:46:59.110Z,101336.72
2017-10-23T08:49:26.764Z,101338.34
2017-10-23T08:51:54.375Z,101345.52
2017-10-23T08:54:22.093Z,101344.75
2017-10-23T08:56:49.681Z,101343.56
2017-10-23T08:59:17.316Z,101349.47
2017-10-23T09:01:44.926Z,101347.90
2017-10-23T09:04:12.546Z,101348.57
2017-10-23T09:06:40.143Z,101350.87
2017-10-23T09:09:07.792Z,101356.69
2017-10-23T09:11:35.406Z,101351.46
2017-10-23T09:14:03.198Z,101361.05
2017-10-23T09:16:30.780Z,101359.55
2017-10-23T09:18:58.418Z,101367.02
2017-10-23T09:21:26.006Z,101362.20
2017-10-23T09:23:53.630Z,101354.05
2017-10-23T09:26:21.244Z,101356.11
2017-10-23T09:28:48.873Z,101355.25
2017-10-23T09:31:16.467Z,101347.71
2017-10-23T09:33:44.096Z,101358.45
2017-10-23T09:36:11.706Z,101357.39
2017-10-23T09:38:39.367Z,101361.03
2017-10-23T09:41:07.032Z,101363.33
2017-10-23T09:43:34.763Z,101364.98
2017-10-23T09:46:02.379Z,101361.11
2017-10-23T09:48:30.047Z,101358.93
2017-10-23T09:50:57.647Z,101361.63
2017-10-23T09:53:25.310Z,101364.31
2017-10-23T09:55:52.958Z,101369.43
2017-10-23T09:58:20.595Z,101372.78
2017-10-23T10:00:48.220Z,101376.27
2017-10-23T10:03:15.824Z,101375.05
2017-10-23T10:05:43.443Z,101374.48
2017-10-23T10:08:11.063Z,101376.38
2017-10-23T10:10:38.726Z,101374.69
2017-10-23T10:13:06.455Z,101384.28
2017-10-23T10:15:34.125Z,101376.55
2017-10-23T10:18:01.740Z,101381.63
2017-10-23T10:20:29.366Z,101381.88
2017-10-23T10:22:56.968Z,101380.17
2017-10-23T10:25:24.599Z,101379.33
2017-10-23T10:27:52.326Z,101392.53
2017-10-23T10:30:20.003Z,101390.77
2017-10-23T10:32:47.665Z,101377.17
2017-10-23T10:35:15.274Z,101378.52
2017-10-23T10:37:42.921Z,101386.34
2017-10-23T10:40:10.529Z,101376.55
2017-10-23T10:42:38.182Z,101382.83
2017-10-23T10:45:05.828Z,101380.38
2017-10-23T10:47:33.451Z,101382.74
2017-10-23T10:50:01.076Z,101378.14
2017-10-23T10:52:28.726Z,101390.38
2017-10-23T10:54:56.331Z,101395.60
2017-10-23T10:57:23.989Z,101393.74
2017-10-23T10:59:51.587Z,101392.78
2017-10-23T11:02:19.225Z,101397.76
2017-10-23T11:04:46.891Z,101398.14
2017-10-23T11:07:14.527Z,101394.78
2017-10-23T11:09:42.127Z,101395.44
2017-10-23T11:12:09.864Z,101396.11
2017-10-23T11:14:37.472Z,101397.88
2017-10-23T11:17:05.083Z,101395.32
2017-10-23T11:19:32.770Z,101390.91
2017-10-23T11:22:00.390Z,101391.89
2017-10-23T11:24:28.029Z,101386.66
2017-10-23T11:26:55.746Z,101393.30
2017-10-23T11:29:23.339Z,101390.39
2017-10-23T11:31:51.011Z,101403.70
2017-10-23T11:34:18.582Z,101395.78
2017-10-23T11:36:46.359Z,101399.41
2017-10-23T11:39:13.990Z,101390.67
2017-10-23T11:41:41.631Z,101392.93
2017-10-23T11:44:09.275Z,101383.78
2017-10-23T11:46:36.919Z,101386.98
2017-10-23T11:49:04.534Z,101393.05
2017-10-23T11:51:32.190Z,101389.05
2017-10-23T11:53:59.891Z,101389.19
2017-10-23T11:56:27.521Z,101387.41
2017-10-23T11:58:55.164Z,101388.61
2017-10-23T12:01:22.921Z,101389.27
2017-10-23T12:03:50.510Z,101394.25
2017-10-23T12:06:18.167Z,101393.05
2017-10-23T12:08:45.766Z,101390.60
2017-10-23T12:11:13.366Z,101394.34
2017-10-23T12:13:41.011Z,101392.31
2017-10-23T12:16:08.745Z,101391.23
2017-10-23T12:18:36.358Z,101398.75
2017-10-23T12:21:04.006Z,101395.72
2017-10-23T12:23:31.638Z,101405.08
2017-10-23T12:25:59.379Z,101397.79
2017-10-23T12:28:27.019Z,101393.23
2017-10-23T12:30:54.671Z,101397.79
2017-10-23T12:33:22.274Z,101386.92
2017-10-23T12:35:49.923Z,101388.57
2017-10-23T12:38:17.542Z,101389.26
2017-10-23T12:40:45.174Z,101392.14
2017-10-23T12:43:12.834Z,101391.80
2017-10-23T12:45:40.521Z,101392.33
2017-10-23T12:48:08.127Z,101390.20
2017-10-23T12:50:35.762Z,101402.06
2017-10-23T12:53:03.376Z,101399.27
2017-10-23T12:55:31.033Z,101398.06
2017-10-23T12:57:58.636Z,101401.44
2017-10-23T13:00:26.272Z,101401.03
2017-10-23T13:02:53.892Z,101399.28
2017-10-23T13:05:21.596Z,101404.84
2017-10-23T13:07:49.255Z,101401.75
2017-10-23T13:10:16.884Z,101404.17
2017-10-23T13:12:44.510Z,101405.80
2017-10-23T13:15:12.130Z,101401.89
2017-10-23T13:17:39.778Z,101398.52
2017-10-23T13:20:07.393Z,101399.09
2017-10-23T13:22:35.032Z,101402.62
2017-10-23T13:25:02.662Z,101399.24
2017-10-23T13:27:30.275Z,101404.77
2017-10-23T13:29:57.907Z,101408.16
2017-10-23T13:32:25.531Z,101403.08
2017-10-23T13:34:53.155Z,101408.68
2017-10-23T13:37:20.790Z,101412.19
2017-10-23T13:39:48.410Z,101414.20
2017-10-23T13:42:16.113Z,101416.10
2017-10-23T13:44:43.730Z,101418.38
2017-10-23T13:47:11.393Z,101417.50
2017-10-23T13:49:39.004Z,101418.30
2017-10-23T13:52:06.769Z,101417.76
2017-10-23T13:54:34.422Z,101414.30
2017-10-23T13:57:02.054Z,101415.76
2017-10-23T13:59:29.707Z,101419.67
2017-10-23T14:01:57.404Z,101422.55
2017-10-23T14:04:25.046Z,101419.91
2017-10-23T14:06:52.685Z,101418.09
2017-10-23T14:09:20.339Z,101420.01
2017-10-23T14:11:47.938Z,101414.81
2017-10-23T14:14:15.587Z,101416.48
2017-10-23T14:16:43.281Z,101425.80
2017-10-23T14:19:10.929Z,101428.33
2017-10-23T14:21:38.549Z,101434.23
2017-10-23T14:24:06.199Z,101434.90
2017-10-23T14:26:33.787Z,101439.19
2017-10-23T14:29:01.414Z,101447.41
2017-10-23T14:31:29.004Z,101434.06
2017-10-23T14:33:56.611Z,101439.45
2017-10-23T14:36:24.352Z,101441.04
2017-10-23T14:38:52.000Z,101443.63
2017-10-23T14:41:19.622Z,101446.61
2017-10-23T14:43:47.233Z,101451.31
2017-10-23T14:46:14.855Z,101449.83
2017-10-23T14:48:42.462Z,101445.26
2017-10-23T14:51:10.107Z,101452.69
2017-10-23T14:53:37.724Z,101454.70
2017-10-23T14:56:05.360Z,101453.11
2017-10-23T14:58:32.955Z,101455.22
2017-10-23T15:01:00.624Z,101456.03
2017-10-23T15:03:28.219Z,101464.39
2017-10-23T15:05:55.866Z,101463.06
2017-10-23T15:08:23.489Z,101461.69
2017-10-23T15:10:51.125Z,101454.31
2017-10-23T15:13:18.746Z,101462.39
2017-10-23T15:15:46.452Z,101461.75
2017-10-23T15:18:14.043Z,101465.11
2017-10-23T15:20:41.680Z,101457.45
2017-10-23T15:23:09.290Z,101464.19
2017-10-23T15:25:36.935Z,101469.41
2017-10-23T15:28:04.538Z,101465.90
2017-10-23T15:30:32.166Z,101461.45
2017-10-23T15:32:59.806Z,101467.50
2017-10-23T15:35:27.476Z,101473.13
2017-10-23T15:37:55.086Z,101474.59
2017-10-23T15:40:22.704Z,101469.05
2017-10-23T15:42:50.419Z,101479.14
2017-10-23T15:45:18.050Z,101484.77
2017-10-23T15:47:45.691Z,101478.59
2017-10-23T15:50:13.306Z,101470.80
2017-10-23T15:52:40.959Z,101474.29
2017-10-23T15:55:08.583Z,101474.42
2017-10-23T15:57:36.270Z,101479.95
2017-10-23T16:00:03.900Z,101482.08
2017-10-23T16:02:31.606Z,101486.38
2017-10-23T16:04:59.243Z,101490.83
2017-10-23T16:07:26.898Z,101497.27
2017-10-23T16:09:54.493Z,101491.22
2017-10-23T16:12:22.122Z,101491.09
2017-10-23T16:14:49.742Z,101493.91
2017-10-23T16:17:17.372Z,101499.17
2017-10-23T16:19:44.974Z,101501.71
2017-10-23T16:22:12.600Z,101492.44
2017-10-23T16:24:40.189Z,101503.31
2017-10-23T16:27:08.632Z,101501.98
2017-10-23T16:29:36.231Z,101505.60
2017-10-23T16:32:03.858Z,101507.87
2017-10-23T16:34:32.401Z,101507.19
2017-10-23T16:37:00.166Z,101512.93
2017-10-23T16:39:27.752Z,101513.39
2017-10-23T16:41:55.385Z,101517.77
2017-10-23T16:44:23.029Z,101524.20
2017-10-23T16:46:50.808Z,101524.42
2017-10-23T16:49:18.395Z,101529.36
2017-10-23T16:51:45.994Z,101535.37
2017-10-23T16:54:13.634Z,101539.78
2017-10-23T16:56:41.273Z,101537.59
2017-10-23T16:59:08.961Z,101550.73
2017-10-23T17:01:36.568Z,101548.80
2017-10-23T17:04:04.186Z,101540.41
2017-10-23T17:06:31.787Z,101547.40
2017-10-23T17:08:59.540Z,101548.21
2017-10-23T17:11:27.156Z,101555.98
2017-10-23T17:13:54.803Z,101555.03
2017-10-23T17:16:22.456Z,101555.55
2017-10-23T17:18:50.110Z,101553.92
2017-10-23T17:21:17.748Z,101560.89
2017-10-23T17:23:45.398Z,101562.19
2017-10-23T17:26:13.035Z,101563.10
2017-10-23T17:28:40.678Z,101561.89
2017-10-23T17:31:08.291Z,101571.31
2017-10-23T17:33:35.948Z,101580.17
2017-10-23T17:36:03.544Z,101577.17
2017-10-23T17:38:31.182Z,101582.02
2017-10-23T17:40:58.838Z,101583.78
2017-10-23T17:43:26.483Z,101579.84
2017-10-23T17:45:54.151Z,101583.98
2017-10-23T17:48:21.806Z,101587.19
2017-10-23T17:50:49.410Z,101590.59
2017-10-23T17:53:17.056Z,101590.02
2017-10-23T17:55:44.681Z,101590.30
2017-10-23T17:58:12.302Z,101592.03
2017-10-23T18:00:39.955Z,101599.14
2017-10-23T18:03:09.271Z,101599.55
2017-10-23T18:05:36.932Z,101599.27
2017-10-23T18:08:04.594Z,101594.18
2017-10-23T18:10:32.239Z,101599.42
2017-10-23T18:12:59.864Z,101598.91
2017-10-23T18:15:27.507Z,101602.81
2017-10-23T18:17:55.131Z,101605.09
2017-10-23T18:20:23.431Z,101606.05
2017-10-23T18:22:51.042Z,101606.05
2017-10-23T18:25:18.698Z,101606.98
2017-10-23T18:27:46.306Z,101612.64
2017-10-23T18:30:13.955Z,101613.98
2017-10-23T18:32:41.557Z,101612.13
2017-10-23T18:35:09.196Z,101600.25
2017-10-23T18:37:36.782Z,101600.77
2017-10-23T18:40:04.426Z,101599.72
2017-10-23T18:42:32.051Z,101604.67
2017-10-23T18:44:59.719Z,101611.92
2017-10-23T18:47:27.369Z,101612.47
2017-10-23T18:49:55.031Z,101610.00
2017-10-23T18:52:22.651Z,101613.37
2017-10-23T18:54:51.162Z,101614.17
2017-10-23T18:57:18.790Z,101618.46
2017-10-23T18:59:46.419Z,101623.06
2017-10-23T19:02:14.053Z,101622.23
2017-10-23T19:04:41.690Z,101620.37
2017-10-23T19:07:09.304Z,101624.13
2017-10-23T19:09:36.916Z,101619.80
2017-10-23T19:12:04.582Z,101626.14
2017-10-23T19:14:32.206Z,101619.84
2017-10-23T19:16:59.855Z,101618.33
2017-10-23T19:19:27.480Z,101621.02
2017-10-23T19:21:55.150Z,101624.28
2017-10-23T19:24:23.403Z,101622.02
2017-10-23T19:26:51.088Z,101620.92
2017-10-23T19:29:18.718Z,101624.95
2017-10-23T19:31:46.366Z,101620.53
2017-10-23T19:34:13.999Z,101625.14
2017-10-23T19:36:41.661Z,101622.84
2017-10-23T19:39:09.333Z,101631.97
2017-10-23T19:41:37.116Z,101638.18
2017-10-23T19:44:04.755Z,101636.01
2017-10-23T19:46:32.400Z,101636.86
2017-10-23T19:48:59.992Z,101636.19
2017-10-23T19:51:27.740Z,101628.06
2017-10-23T19:53:55.363Z,101637.82
2017-10-23T19:56:23.015Z,101639.52
2017-10-23T19:58:50.654Z,101640.47
2017-10-23T20:01:18.332Z,101639.73
2017-10-23T20:03:45.955Z,101640.50
2017-10-23T20:06:13.612Z,101636.52
2017-10-23T20:08:41.238Z,101636.50
2017-10-23T20:11:09.987Z,101640.98
2017-10-23T20:13:37.620Z,101634.81
2017-10-23T20:16:05.282Z,101643.09
2017-10-23T20:18:32.893Z,101651.31
2017-10-23T20:21:00.563Z,101647.98
2017-10-23T20:23:28.182Z,101650.16
2017-10-23T20:25:55.829Z,101661.14
2017-10-23T20:28:23.478Z,101665.77
2017-10-23T20:30:51.143Z,101666.86
2017-10-23T20:33:18.749Z,101668.87
2017-10-23T20:35:46.381Z,101680.46
2017-10-23T20:38:13.976Z,101677.70
2017-10-23T20:40:41.632Z,101678.97
2017-10-23T20:43:09.243Z,101683.95
2017-10-23T20:45:36.888Z,101679.27
2017-10-23T20:48:04.490Z,101680.70
2017-10-23T20:50:32.139Z,101680.88
2017-10-23T20:52:59.738Z,101676.61
2017-10-23T20:55:27.381Z,101679.52
2017-10-23T20:57:55.024Z,101674.33
2017-10-23T21:00:22.673Z,101676.80
2017-10-23T21:02:51.502Z,101680.14
2017-10-23T21:05:19.126Z,101685.19
2017-10-23T21:07:46.721Z,101682.55
2017-10-23T21:10:14.378Z,101688.45
2017-10-23T21:12:42.065Z,101686.28
2017-10-23T21:15:09.728Z,101682.91
2017-10-23T21:17:37.351Z,101686.53
2017-10-23T21:20:05.096Z,101679.37
2017-10-23T21:22:32.715Z,101678.02
2017-10-23T21:25:00.363Z,101677.45
2017-10-23T21:27:27.985Z,101679.05
2017-10-23T21:29:55.755Z,101676.36
2017-10-23T21:32:23.346Z,101674.60
2017-10-23T21:34:50.966Z,101681.62
2017-10-23T21:37:18.598Z,101681.74
2017-10-23T21:39:46.190Z,101683.79
2017-10-23T21:42:13.819Z,101683.53
2017-10-23T21:44:41.429Z,101683.38
2017-10-23T21:47:10.308Z,101682.83
2017-10-23T21:49:38.028Z,101677.70
2017-10-23T21:52:05.654Z,101680.38
2017-10-23T21:54:33.289Z,101674.10
2017-10-23T21:57:00.956Z,101676.41
2017-10-23T21:59:28.596Z,101683.48
2017-10-23T22:01:56.268Z,101679.20
2017-10-23T22:04:23.888Z,101680.64
2017-10-23T22:06:51.531Z,101686.60
2017-10-23T22:09:19.150Z,101689.58
2017-10-23T22:11:46.785Z,101697.07
2017-10-23T22:14:14.410Z,101692.81
2017-10-23T22:16:42.044Z,101699.47
2017-10-23T22:19:09.635Z,101696.17
2017-10-23T22:21:37.282Z,101690.63
2017-10-23T22:24:04.894Z,101691.62
2017-10-23T22:26:32.513Z,101693.15
2017-10-23T22:29:00.154Z,101695.76
2017-10-23T22:31:27.795Z,101691.56
2017-10-23T22:33:55.410Z,101696.11
2017-10-23T22:36:23.070Z,101699.92
2017-10-23T22:38:50.666Z,101695.96
2017-10-23T22:41:18.285Z,101695.03
2017-10-23T22:43:45.950Z,101695.32
2017-10-23T22:46:13.550Z,101691.20
2017-10-23T22:48:41.195Z,101689.56
2017-10-23T22:51:08.798Z,101692.80
2017-10-23T22:53:36.451Z,101693.41
2017-10-23T22:56:04.050Z,101694.91
2017-10-23T22:58:31.834Z,101694.87
2017-10-23T23:00:59.427Z,101694.70
2017-10-23T23:03:27.059Z,101696.84
2017-10-23T23:05:54.642Z,101696.66
2017-10-23T23:08:22.293Z,101693.58
2017-10-23T23:10:49.886Z,101685.95
2017-10-23T23:13:17.519Z,101690.56
2017-10-23T23:15:45.203Z,101693.38
2017-10-23T23:18:14.035Z,101692.13
2017-10-23T23:20:41.643Z,101688.10
2017-10-23T23:23:09.264Z,101694.69
2017-10-23T23:25:36.863Z,101697.50
2017-10-23T23:28:04.644Z,101696.16
2017-10-23T23:30:32.269Z,101696.20
2017-10-23T23:32:59.918Z,101694.34
2017-10-23T23:35:27.536Z,101693.34
2017-10-23T23:37:55.147Z,101685.79
2017-10-23T23:40:22.784Z,101686.66
2017-10-23T23:42:50.370Z,101680.27
2017-10-23T23:45:18.009Z,101682.80
2017-10-23T23:47:45.600Z,101672.81
2017-10-23T23:50:13.220Z,101671.92
2017-10-23T23:52:40.827Z,101670.54
2017-10-23T23:55:09.950Z,101669.80
2017-10-23T23:57:37.567Z,101665.26
